x

Cape Lookout, Nc (clkn7) Weather Station

3:00am - Sat 18th Nov 2017 All times are EST. -5 hours from GMT.

  • Wind
    7mph, 8mph gusts
  • Air Temp 50°f
  • Sea Pressure 1020.1mb
  • Cape Lookout, Nc
  • Cape Lookout, Nc

More Historic Weather Station data

Upgrade to MSW Pro to gain access to the past 30 days of data for over 8000 Wavebouys and Weather Stations around the globe.

Join

Comparision Forecast

View Surf forecast
   
Sat 11/18 3:00am 7 8 mph 1020.1mb 50f
2:00am 7 8 mph 1020.6mb 50f
1:00am 6 6 mph 1020.7mb 51f
12:00am 7 7 mph 1021.7mb 52f
Fri 11/17 11:00pm 5 6 mph 1021.5mb 53f
10:00pm 2 3 mph 1021.3mb 52f
9:00pm 5 6 mph 1021.4mb 53f
8:00pm 7 7 mph 1022mb 53f
7:00pm 6 6 mph 1022.3mb 52f
6:00pm 8 8 mph 1022mb 51f
5:00pm 7 8 mph 1021.9mb 53f
4:00pm 9 10 mph 1021.4mb 54f
3:00pm 9 10 mph 1020.9mb 54f
2:00pm 10 14 mph 1021.2mb 53f
1:00pm 9 13 mph 1021.5mb 52f
12:00pm 13 16 mph 1022.2mb 52f
11:00am 16 22 mph 1022.8mb 50f
10:00am 20 25 mph 1023.4mb 50f
9:00am 16 23 mph 1023mb 49f
8:00am 13 16 mph 1022.8mb 49f
7:00am 14 17 mph 1022mb 48f
6:00am 18 23 mph 1021.2mb 49f
5:00am 17 23 mph 1020.2mb 50f
4:00am 20 24 mph 1019.8mb 51f
3:00am 20 23 mph 1019.2mb 52f
2:00am 17 21 mph 1018.3mb 54f
1:00am 13 15 mph 1017.8mb 57f
12:00am 7 9 mph 1017.7mb 58f
Thu 11/16 11:00pm 10 11 mph 1017.2mb 59f
10:00pm 7 8 mph 1017.4mb 59f
9:00pm 7 8 mph 1017.4mb 60f
8:00pm 7 8 mph 1016.6mb 61f
7:00pm 9 10 mph 1016.3mb 62f
6:00pm 11 14 mph 1015.5mb 62f
5:00pm 9 11 mph 1014.7mb 62f
4:00pm 3 5 mph 1014.3mb 63f
3:00pm  -  2 mph 1014.1mb 64f
2:00pm 8 9 mph 1014.2mb 62f
1:00pm 7 9 mph 1014.7mb 61f
12:00pm 9 11 mph 1015.6mb 59f
11:00am 13 15 mph 1016.8mb 56f
10:00am 15 18 mph 1016.7mb 55f
9:00am 16 20 mph 1016.6mb 53f
8:00am 10 11 mph 1016.3mb 52f
7:00am 14 18 mph 1016mb 52f
6:00am 13 14 mph 1015.4mb 52f
5:00am 16 20 mph 1015.7mb 53f
4:00am 13 15 mph 1015.2mb 53f
3:00am 13 14 mph 1015.2mb 54f
2:00am 13 16 mph 1016mb 54f
1:00am 14 16 mph 1016.2mb 54f
12:00am 13 14 mph 1016.4mb 54f
Wed 11/15 11:00pm 14 15 mph 1016.7mb 54f
10:00pm 11 13 mph 1017.4mb 55f
9:00pm 10 13 mph 1017.7mb 56f
8:00pm 9 11 mph 1017.7mb 56f
7:00pm 10 11 mph 1017.7mb 57f
6:00pm 14 17 mph 1018mb 58f
5:00pm 13 14 mph 1017.6mb 58f
4:00pm 14 16 mph 1017.6mb 59f
3:00pm 14 17 mph 1017.2mb 58f
2:00pm 16 20 mph 1017.3mb 57f
1:00pm 15 20 mph 1018.3mb 56f
12:00pm 16 20 mph 1019.1mb 55f
11:00am 17 22 mph 1020.6mb 55f
10:00am 16 20 mph 1020.9mb 52f
9:00am 21 22 mph 1021.2mb 49f
8:00am 18 22 mph 1021.3mb 47f
7:00am 22 26 mph 1021.2mb 47f
6:00am 18 22 mph 1021.1mb 47f
5:00am 20 24 mph 1021mb 47f
4:00am 18 23 mph 1020.5mb 47f
3:00am 22 25 mph 1020.6mb 47f
2:00am 22 28 mph 1020.8mb 47f
1:00am 22 26 mph 1020.8mb 48f
12:00am 22 28 mph 1021.3mb 48f
Tue 11/14 11:00pm 16 21 mph 1022.2mb 49f
10:00pm 16 20 mph 1022.8mb 49f
9:00pm 23 28 mph 1022.6mb 50f
8:00pm 17 24 mph 1022.5mb 51f
7:00pm 22 25 mph 1022.4mb 52f
6:00pm 18 22 mph 1022.4mb 53f
5:00pm 13 16 mph 1021.9mb 54f
4:00pm 18 22 mph 1021.8mb 55f
3:00pm 17 20 mph 1022.1mb 56f
2:00pm 20 24 mph 1022.3mb 56f
1:00pm 21 24 mph 1022.5mb 56f
12:00pm 21 25 mph 1023.1mb 55f
11:00am 17 22 mph 1023.6mb 55f
10:00am 21 25 mph 1023.8mb 53f